sensor_id;sensor_type;location;lat;lon;timestamp;P1;durP1;ratioP1;P2;durP2;ratioP2
3975;SDS011;2002;48.812;9.180;2023-05-27T00:00:30;3.27;;;2.87;;
3975;SDS011;2002;48.812;9.180;2023-05-27T00:02:58;4.20;;;3.80;;
3975;SDS011;2002;48.812;9.180;2023-05-27T00:05:25;3.87;;;3.53;;
3975;SDS011;2002;48.812;9.180;2023-05-27T00:07:51;7.70;;;3.87;;
3975;SDS011;2002;48.812;9.180;2023-05-27T00:10:17;5.13;;;4.30;;
3975;SDS011;2002;48.812;9.180;2023-05-27T00:12:42;4.07;;;3.73;;
3975;SDS011;2002;48.812;9.180;2023-05-27T00:15:08;4.23;;;3.73;;
3975;SDS011;2002;48.812;9.180;2023-05-27T00:17:34;4.27;;;3.50;;
3975;SDS011;2002;48.812;9.180;2023-05-27T00:20:00;4.10;;;3.20;;
3975;SDS011;2002;48.812;9.180;2023-05-27T00:22:32;3.80;;;3.43;;
3975;SDS011;2002;48.812;9.180;2023-05-27T00:24:59;3.90;;;3.50;;
3975;SDS011;2002;48.812;9.180;2023-05-27T00:27:25;3.67;;;3.30;;
3975;SDS011;2002;48.812;9.180;2023-05-27T00:29:51;3.40;;;3.10;;
3975;SDS011;2002;48.812;9.180;2023-05-27T00:32:16;3.33;;;2.90;;
3975;SDS011;2002;48.812;9.180;2023-05-27T00:34:42;4.80;;;4.33;;
3975;SDS011;2002;48.812;9.180;2023-05-27T00:37:07;3.83;;;3.53;;
3975;SDS011;2002;48.812;9.180;2023-05-27T00:39:33;6.00;;;3.20;;
3975;SDS011;2002;48.812;9.180;2023-05-27T00:41:59;4.43;;;3.47;;
3975;SDS011;2002;48.812;9.180;2023-05-27T00:44:25;3.97;;;3.57;;
3975;SDS011;2002;48.812;9.180;2023-05-27T00:46:51;5.10;;;4.23;;
3975;SDS011;2002;48.812;9.180;2023-05-27T00:49:17;4.00;;;3.20;;
3975;SDS011;2002;48.812;9.180;2023-05-27T00:51:44;3.53;;;2.87;;
3975;SDS011;2002;48.812;9.180;2023-05-27T00:54:10;2.87;;;2.67;;
3975;SDS011;2002;48.812;9.180;2023-05-27T00:56:36;4.73;;;3.30;;
3975;SDS011;2002;48.812;9.180;2023-05-27T00:59:02;3.77;;;2.83;;
3975;SDS011;2002;48.812;9.180;2023-05-27T01:01:28;3.77;;;3.40;;
3975;SDS011;2002;48.812;9.180;2023-05-27T01:03:54;3.50;;;3.20;;
3975;SDS011;2002;48.812;9.180;2023-05-27T01:08:59;4.60;;;3.70;;
3975;SDS011;2002;48.812;9.180;2023-05-27T01:11:49;4.23;;;3.83;;
3975;SDS011;2002;48.812;9.180;2023-05-27T01:14:22;5.30;;;3.17;;
3975;SDS011;2002;48.812;9.180;2023-05-27T01:16:50;3.27;;;2.97;;
3975;SDS011;2002;48.812;9.180;2023-05-27T01:19:28;4.77;;;3.13;;
3975;SDS011;2002;48.812;9.180;2023-05-27T01:21:58;6.63;;;3.40;;
3975;SDS011;2002;48.812;9.180;2023-05-27T01:24:25;3.97;;;3.00;;
3975;SDS011;2002;48.812;9.180;2023-05-27T01:26:51;3.23;;;3.03;;
3975;SDS011;2002;48.812;9.180;2023-05-27T01:29:18;4.60;;;3.30;;
3975;SDS011;2002;48.812;9.180;2023-05-27T01:31:51;3.80;;;3.40;;
3975;SDS011;2002;48.812;9.180;2023-05-27T01:34:28;5.23;;;3.20;;
3975;SDS011;2002;48.812;9.180;2023-05-27T01:37:18;4.50;;;3.67;;
3975;SDS011;2002;48.812;9.180;2023-05-27T01:39:45;3.40;;;3.10;;
3975;SDS011;2002;48.812;9.180;2023-05-27T01:42:13;3.30;;;3.00;;
3975;SDS011;2002;48.812;9.180;2023-05-27T01:44:40;4.27;;;3.20;;
3975;SDS011;2002;48.812;9.180;2023-05-27T01:47:07;6.97;;;3.60;;
3975;SDS011;2002;48.812;9.180;2023-05-27T01:49:32;3.60;;;3.10;;
3975;SDS011;2002;48.812;9.180;2023-05-27T01:51:58;4.40;;;3.17;;
3975;SDS011;2002;48.812;9.180;2023-05-27T01:54:24;4.17;;;2.97;;
3975;SDS011;2002;48.812;9.180;2023-05-27T01:56:50;2.97;;;2.67;;
3975;SDS011;2002;48.812;9.180;2023-05-27T01:59:15;3.27;;;2.97;;
3975;SDS011;2002;48.812;9.180;2023-05-27T02:01:41;3.30;;;2.90;;
3975;SDS011;2002;48.812;9.180;2023-05-27T02:04:07;3.07;;;2.73;;
3975;SDS011;2002;48.812;9.180;2023-05-27T02:06:33;4.10;;;3.47;;
3975;SDS011;2002;48.812;9.180;2023-05-27T02:08:58;4.10;;;3.33;;
3975;SDS011;2002;48.812;9.180;2023-05-27T02:11:24;3.87;;;3.10;;
3975;SDS011;2002;48.812;9.180;2023-05-27T02:13:50;5.33;;;2.90;;
3975;SDS011;2002;48.812;9.180;2023-05-27T02:16:17;3.50;;;2.93;;
3975;SDS011;2002;48.812;9.180;2023-05-27T02:18:47;4.40;;;3.03;;
3975;SDS011;2002;48.812;9.180;2023-05-27T02:21:14;5.07;;;3.40;;
3975;SDS011;2002;48.812;9.180;2023-05-27T02:23:39;3.50;;;3.20;;
3975;SDS011;2002;48.812;9.180;2023-05-27T02:26:05;3.00;;;2.70;;
3975;SDS011;2002;48.812;9.180;2023-05-27T02:28:31;2.90;;;2.33;;
3975;SDS011;2002;48.812;9.180;2023-05-27T02:30:57;4.47;;;3.23;;
3975;SDS011;2002;48.812;9.180;2023-05-27T02:33:23;5.93;;;3.50;;
3975;SDS011;2002;48.812;9.180;2023-05-27T02:35:49;4.10;;;3.13;;
3975;SDS011;2002;48.812;9.180;2023-05-27T02:38:14;3.20;;;2.87;;
3975;SDS011;2002;48.812;9.180;2023-05-27T02:40:40;4.83;;;3.57;;
3975;SDS011;2002;48.812;9.180;2023-05-27T02:43:05;5.30;;;3.43;;
3975;SDS011;2002;48.812;9.180;2023-05-27T02:45:31;4.80;;;3.10;;
3975;SDS011;2002;48.812;9.180;2023-05-27T02:47:57;4.40;;;3.37;;
3975;SDS011;2002;48.812;9.180;2023-05-27T02:50:26;5.63;;;3.20;;
3975;SDS011;2002;48.812;9.180;2023-05-27T02:52:51;5.47;;;2.70;;
3975;SDS011;2002;48.812;9.180;2023-05-27T02:55:17;3.17;;;2.87;;
3975;SDS011;2002;48.812;9.180;2023-05-27T02:57:42;3.40;;;3.10;;
3975;SDS011;2002;48.812;9.180;2023-05-27T03:00:08;3.67;;;3.37;;
3975;SDS011;2002;48.812;9.180;2023-05-27T03:02:35;3.93;;;3.20;;
3975;SDS011;2002;48.812;9.180;2023-05-27T03:05:00;3.70;;;2.70;;
3975;SDS011;2002;48.812;9.180;2023-05-27T03:07:26;5.37;;;3.30;;
3975;SDS011;2002;48.812;9.180;2023-05-27T03:09:54;3.67;;;3.37;;
3975;SDS011;2002;48.812;9.180;2023-05-27T03:12:21;5.30;;;2.97;;
3975;SDS011;2002;48.812;9.180;2023-05-27T03:14:46;4.80;;;3.10;;
3975;SDS011;2002;48.812;9.180;2023-05-27T03:17:12;5.10;;;2.93;;
3975;SDS011;2002;48.812;9.180;2023-05-27T03:19:38;3.17;;;2.90;;
3975;SDS011;2002;48.812;9.180;2023-05-27T03:22:03;5.10;;;3.20;;
3975;SDS011;2002;48.812;9.180;2023-05-27T03:24:29;3.53;;;3.20;;
3975;SDS011;2002;48.812;9.180;2023-05-27T03:26:55;3.30;;;3.00;;
3975;SDS011;2002;48.812;9.180;2023-05-27T03:29:20;3.73;;;2.77;;
3975;SDS011;2002;48.812;9.180;2023-05-27T03:31:46;4.80;;;3.20;;
3975;SDS011;2002;48.812;9.180;2023-05-27T03:34:11;3.20;;;2.80;;
3975;SDS011;2002;48.812;9.180;2023-05-27T03:36:37;4.83;;;3.20;;
3975;SDS011;2002;48.812;9.180;2023-05-27T03:39:03;3.80;;;3.03;;
3975;SDS011;2002;48.812;9.180;2023-05-27T03:41:30;5.13;;;3.30;;
3975;SDS011;2002;48.812;9.180;2023-05-27T03:43:56;5.83;;;2.70;;
3975;SDS011;2002;48.812;9.180;2023-05-27T03:46:22;3.27;;;3.07;;
3975;SDS011;2002;48.812;9.180;2023-05-27T03:48:47;5.27;;;3.33;;
3975;SDS011;2002;48.812;9.180;2023-05-27T03:51:13;3.43;;;3.00;;
3975;SDS011;2002;48.812;9.180;2023-05-27T03:53:38;4.27;;;3.87;;
3975;SDS011;2002;48.812;9.180;2023-05-27T03:56:04;4.90;;;3.23;;
3975;SDS011;2002;48.812;9.180;2023-05-27T03:58:30;5.17;;;3.33;;
3975;SDS011;2002;48.812;9.180;2023-05-27T04:00:56;3.87;;;2.80;;
3975;SDS011;2002;48.812;9.180;2023-05-27T04:03:21;4.67;;;3.50;;
3975;SDS011;2002;48.812;9.180;2023-05-27T04:05:47;4.00;;;3.70;;
3975;SDS011;2002;48.812;9.180;2023-05-27T04:08:12;4.60;;;3.03;;
3975;SDS011;2002;48.812;9.180;2023-05-27T04:10:38;4.37;;;2.83;;
3975;SDS011;2002;48.812;9.180;2023-05-27T04:13:04;3.27;;;2.70;;
3975;SDS011;2002;48.812;9.180;2023-05-27T04:15:30;4.37;;;3.13;;
3975;SDS011;2002;48.812;9.180;2023-05-27T04:17:55;4.00;;;2.60;;
3975;SDS011;2002;48.812;9.180;2023-05-27T04:20:21;3.20;;;2.70;;
3975;SDS011;2002;48.812;9.180;2023-05-27T04:22:47;4.60;;;2.87;;
3975;SDS011;2002;48.812;9.180;2023-05-27T04:25:13;3.77;;;3.47;;
3975;SDS011;2002;48.812;9.180;2023-05-27T04:27:38;3.70;;;2.80;;
3975;SDS011;2002;48.812;9.180;2023-05-27T04:30:04;7.20;;;2.87;;
3975;SDS011;2002;48.812;9.180;2023-05-27T04:32:31;3.93;;;2.70;;
3975;SDS011;2002;48.812;9.180;2023-05-27T04:35:06;3.73;;;3.00;;
3975;SDS011;2002;48.812;9.180;2023-05-27T04:37:35;3.37;;;3.07;;
3975;SDS011;2002;48.812;9.180;2023-05-27T04:40:03;3.73;;;2.80;;
3975;SDS011;2002;48.812;9.180;2023-05-27T04:42:29;4.73;;;2.80;;
3975;SDS011;2002;48.812;9.180;2023-05-27T04:44:57;3.00;;;2.70;;
3975;SDS011;2002;48.812;9.180;2023-05-27T04:47:23;6.33;;;3.77;;
3975;SDS011;2002;48.812;9.180;2023-05-27T04:49:48;4.03;;;2.87;;
3975;SDS011;2002;48.812;9.180;2023-05-27T04:52:14;3.83;;;2.50;;
3975;SDS011;2002;48.812;9.180;2023-05-27T04:54:39;4.03;;;2.80;;
3975;SDS011;2002;48.812;9.180;2023-05-27T04:57:05;6.13;;;3.27;;
3975;SDS011;2002;48.812;9.180;2023-05-27T04:59:31;4.00;;;2.80;;
3975;SDS011;2002;48.812;9.180;2023-05-27T05:02:27;3.80;;;2.97;;
3975;SDS011;2002;48.812;9.180;2023-05-27T05:05:02;6.43;;;3.00;;
3975;SDS011;2002;48.812;9.180;2023-05-27T05:07:29;5.43;;;3.10;;
3975;SDS011;2002;48.812;9.180;2023-05-27T05:09:56;4.70;;;2.73;;
3975;SDS011;2002;48.812;9.180;2023-05-27T05:12:21;5.77;;;3.70;;
3975;SDS011;2002;48.812;9.180;2023-05-27T05:14:48;3.97;;;2.70;;
3975;SDS011;2002;48.812;9.180;2023-05-27T05:17:13;2.90;;;2.60;;
3975;SDS011;2002;48.812;9.180;2023-05-27T05:19:39;5.07;;;2.50;;
3975;SDS011;2002;48.812;9.180;2023-05-27T05:22:04;3.57;;;2.90;;
3975;SDS011;2002;48.812;9.180;2023-05-27T05:24:30;4.60;;;2.50;;
3975;SDS011;2002;48.812;9.180;2023-05-27T05:26:56;5.23;;;3.67;;
3975;SDS011;2002;48.812;9.180;2023-05-27T05:29:21;5.53;;;3.33;;
3975;SDS011;2002;48.812;9.180;2023-05-27T05:31:47;4.87;;;2.50;;
3975;SDS011;2002;48.812;9.180;2023-05-27T05:34:12;4.37;;;2.90;;
3975;SDS011;2002;48.812;9.180;2023-05-27T05:36:38;8.33;;;3.13;;
3975;SDS011;2002;48.812;9.180;2023-05-27T05:39:03;3.67;;;2.87;;
3975;SDS011;2002;48.812;9.180;2023-05-27T05:41:29;4.73;;;2.43;;
3975;SDS011;2002;48.812;9.180;2023-05-27T05:43:55;3.00;;;2.17;;
3975;SDS011;2002;48.812;9.180;2023-05-27T05:46:21;6.87;;;2.50;;
3975;SDS011;2002;48.812;9.180;2023-05-27T05:48:46;3.23;;;2.80;;
3975;SDS011;2002;48.812;9.180;2023-05-27T05:51:12;3.90;;;2.93;;
3975;SDS011;2002;48.812;9.180;2023-05-27T05:53:38;4.80;;;3.10;;
3975;SDS011;2002;48.812;9.180;2023-05-27T05:56:03;4.40;;;2.73;;
3975;SDS011;2002;48.812;9.180;2023-05-27T05:58:29;2.73;;;2.53;;
3975;SDS011;2002;48.812;9.180;2023-05-27T06:00:55;5.60;;;3.70;;
3975;SDS011;2002;48.812;9.180;2023-05-27T06:03:20;3.73;;;2.90;;
3975;SDS011;2002;48.812;9.180;2023-05-27T06:05:46;4.33;;;3.03;;
3975;SDS011;2002;48.812;9.180;2023-05-27T06:08:12;3.83;;;2.40;;
3975;SDS011;2002;48.812;9.180;2023-05-27T06:10:37;5.03;;;3.20;;
3975;SDS011;2002;48.812;9.180;2023-05-27T06:13:03;3.33;;;2.80;;
3975;SDS011;2002;48.812;9.180;2023-05-27T06:15:30;3.33;;;2.70;;
3975;SDS011;2002;48.812;9.180;2023-05-27T06:17:57;4.67;;;2.93;;
3975;SDS011;2002;48.812;9.180;2023-05-27T06:20:22;7.43;;;2.97;;
3975;SDS011;2002;48.812;9.180;2023-05-27T06:22:48;3.00;;;2.70;;
3975;SDS011;2002;48.812;9.180;2023-05-27T06:25:14;4.47;;;2.93;;
3975;SDS011;2002;48.812;9.180;2023-05-27T06:27:40;5.40;;;2.47;;
3975;SDS011;2002;48.812;9.180;2023-05-27T06:30:06;3.83;;;2.43;;
3975;SDS011;2002;48.812;9.180;2023-05-27T06:32:32;3.33;;;2.63;;
3975;SDS011;2002;48.812;9.180;2023-05-27T06:34:57;4.50;;;3.00;;
3975;SDS011;2002;48.812;9.180;2023-05-27T06:37:23;5.40;;;2.83;;
3975;SDS011;2002;48.812;9.180;2023-05-27T06:39:49;4.10;;;2.87;;
3975;SDS011;2002;48.812;9.180;2023-05-27T06:42:14;3.47;;;2.80;;
3975;SDS011;2002;48.812;9.180;2023-05-27T06:44:40;4.33;;;3.17;;
3975;SDS011;2002;48.812;9.180;2023-05-27T06:47:06;5.00;;;3.30;;
3975;SDS011;2002;48.812;9.180;2023-05-27T06:49:31;2.90;;;2.20;;
3975;SDS011;2002;48.812;9.180;2023-05-27T06:51:57;4.80;;;2.87;;
3975;SDS011;2002;48.812;9.180;2023-05-27T06:54:22;4.47;;;2.10;;
3975;SDS011;2002;48.812;9.180;2023-05-27T06:56:48;5.47;;;2.57;;
3975;SDS011;2002;48.812;9.180;2023-05-27T06:59:14;5.03;;;2.60;;
3975;SDS011;2002;48.812;9.180;2023-05-27T07:01:39;3.70;;;2.50;;
3975;SDS011;2002;48.812;9.180;2023-05-27T07:04:05;3.20;;;2.90;;
3975;SDS011;2002;48.812;9.180;2023-05-27T07:06:30;5.13;;;2.97;;
3975;SDS011;2002;48.812;9.180;2023-05-27T07:08:56;2.83;;;2.63;;
3975;SDS011;2002;48.812;9.180;2023-05-27T07:11:22;4.80;;;2.83;;
3975;SDS011;2002;48.812;9.180;2023-05-27T07:13:48;4.63;;;3.07;;
3975;SDS011;2002;48.812;9.180;2023-05-27T07:16:13;2.77;;;2.57;;
3975;SDS011;2002;48.812;9.180;2023-05-27T07:18:39;3.90;;;2.67;;
3975;SDS011;2002;48.812;9.180;2023-05-27T07:21:05;6.70;;;3.00;;
3975;SDS011;2002;48.812;9.180;2023-05-27T07:23:30;3.23;;;2.77;;
3975;SDS011;2002;48.812;9.180;2023-05-27T07:25:56;4.00;;;3.00;;
3975;SDS011;2002;48.812;9.180;2023-05-27T07:28:22;5.40;;;3.00;;
3975;SDS011;2002;48.812;9.180;2023-05-27T07:30:47;3.50;;;2.83;;
3975;SDS011;2002;48.812;9.180;2023-05-27T07:33:13;3.67;;;2.70;;
3975;SDS011;2002;48.812;9.180;2023-05-27T07:35:39;4.07;;;2.53;;
3975;SDS011;2002;48.812;9.180;2023-05-27T07:38:05;4.30;;;3.10;;
3975;SDS011;2002;48.812;9.180;2023-05-27T07:40:31;3.77;;;2.60;;
3975;SDS011;2002;48.812;9.180;2023-05-27T07:42:56;3.67;;;2.77;;
3975;SDS011;2002;48.812;9.180;2023-05-27T07:45:22;3.20;;;2.87;;
3975;SDS011;2002;48.812;9.180;2023-05-27T07:47:47;4.47;;;3.17;;
3975;SDS011;2002;48.812;9.180;2023-05-27T07:50:13;3.83;;;3.43;;
3975;SDS011;2002;48.812;9.180;2023-05-27T07:52:40;3.63;;;2.63;;
3975;SDS011;2002;48.812;9.180;2023-05-27T07:55:06;5.10;;;2.80;;
3975;SDS011;2002;48.812;9.180;2023-05-27T07:57:32;2.77;;;2.47;;
3975;SDS011;2002;48.812;9.180;2023-05-27T07:59:57;5.17;;;2.90;;
3975;SDS011;2002;48.812;9.180;2023-05-27T08:02:23;2.90;;;2.53;;
3975;SDS011;2002;48.812;9.180;2023-05-27T08:04:50;5.30;;;2.73;;
3975;SDS011;2002;48.812;9.180;2023-05-27T08:07:16;4.40;;;2.77;;
3975;SDS011;2002;48.812;9.180;2023-05-27T08:09:42;4.53;;;3.07;;
3975;SDS011;2002;48.812;9.180;2023-05-27T08:12:07;3.10;;;2.80;;
3975;SDS011;2002;48.812;9.180;2023-05-27T08:14:34;6.47;;;3.10;;
3975;SDS011;2002;48.812;9.180;2023-05-27T08:17:00;4.30;;;3.13;;
3975;SDS011;2002;48.812;9.180;2023-05-27T08:19:25;2.93;;;2.20;;
3975;SDS011;2002;48.812;9.180;2023-05-27T08:21:51;3.70;;;3.03;;
3975;SDS011;2002;48.812;9.180;2023-05-27T08:24:17;3.37;;;2.90;;
3975;SDS011;2002;48.812;9.180;2023-05-27T08:26:46;4.40;;;2.80;;
3975;SDS011;2002;48.812;9.180;2023-05-27T08:29:12;4.97;;;2.60;;
3975;SDS011;2002;48.812;9.180;2023-05-27T08:31:38;4.80;;;3.00;;
3975;SDS011;2002;48.812;9.180;2023-05-27T08:34:05;5.27;;;2.90;;
3975;SDS011;2002;48.812;9.180;2023-05-27T08:36:31;3.77;;;2.70;;
3975;SDS011;2002;48.812;9.180;2023-05-27T08:38:56;3.60;;;2.70;;
3975;SDS011;2002;48.812;9.180;2023-05-27T08:41:22;6.97;;;3.10;;
3975;SDS011;2002;48.812;9.180;2023-05-27T08:43:48;4.40;;;3.53;;
3975;SDS011;2002;48.812;9.180;2023-05-27T08:46:15;4.63;;;2.80;;
3975;SDS011;2002;48.812;9.180;2023-05-27T08:48:41;3.97;;;3.00;;
3975;SDS011;2002;48.812;9.180;2023-05-27T08:51:07;5.20;;;2.77;;
3975;SDS011;2002;48.812;9.180;2023-05-27T08:53:34;3.43;;;3.03;;
3975;SDS011;2002;48.812;9.180;2023-05-27T08:56:00;5.40;;;2.73;;
3975;SDS011;2002;48.812;9.180;2023-05-27T08:58:27;4.53;;;2.67;;
3975;SDS011;2002;48.812;9.180;2023-05-27T09:00:53;3.10;;;2.80;;
3975;SDS011;2002;48.812;9.180;2023-05-27T09:03:19;5.80;;;3.33;;
3975;SDS011;2002;48.812;9.180;2023-05-27T09:05:46;3.77;;;3.40;;
3975;SDS011;2002;48.812;9.180;2023-05-27T09:08:12;5.27;;;2.83;;
3975;SDS011;2002;48.812;9.180;2023-05-27T09:10:38;3.40;;;3.07;;
3975;SDS011;2002;48.812;9.180;2023-05-27T09:13:05;4.67;;;3.20;;
3975;SDS011;2002;48.812;9.180;2023-05-27T09:15:31;5.37;;;3.33;;
3975;SDS011;2002;48.812;9.180;2023-05-27T09:17:57;4.93;;;2.80;;
3975;SDS011;2002;48.812;9.180;2023-05-27T09:20:26;5.03;;;3.20;;
3975;SDS011;2002;48.812;9.180;2023-05-27T09:22:57;2.83;;;2.47;;
3975;SDS011;2002;48.812;9.180;2023-05-27T09:25:27;2.90;;;2.63;;
3975;SDS011;2002;48.812;9.180;2023-05-27T09:27:53;3.33;;;2.60;;
3975;SDS011;2002;48.812;9.180;2023-05-27T09:30:20;4.00;;;2.90;;
3975;SDS011;2002;48.812;9.180;2023-05-27T09:32:47;3.83;;;3.30;;
3975;SDS011;2002;48.812;9.180;2023-05-27T09:35:14;3.90;;;2.80;;
3975;SDS011;2002;48.812;9.180;2023-05-27T09:37:40;3.00;;;2.60;;
3975;SDS011;2002;48.812;9.180;2023-05-27T09:40:08;2.70;;;2.50;;
3975;SDS011;2002;48.812;9.180;2023-05-27T09:45:11;3.60;;;3.03;;
3975;SDS011;2002;48.812;9.180;2023-05-27T09:47:41;4.30;;;2.90;;
3975;SDS011;2002;48.812;9.180;2023-05-27T09:50:12;3.53;;;3.07;;
3975;SDS011;2002;48.812;9.180;2023-05-27T09:52:41;4.43;;;2.57;;
3975;SDS011;2002;48.812;9.180;2023-05-27T09:55:08;3.23;;;2.90;;
3975;SDS011;2002;48.812;9.180;2023-05-27T09:57:36;3.23;;;2.90;;
3975;SDS011;2002;48.812;9.180;2023-05-27T10:00:05;3.43;;;2.90;;
3975;SDS011;2002;48.812;9.180;2023-05-27T10:02:40;4.30;;;3.90;;
3975;SDS011;2002;48.812;9.180;2023-05-27T10:05:16;3.50;;;3.20;;
3975;SDS011;2002;48.812;9.180;2023-05-27T10:07:44;4.00;;;3.60;;
3975;SDS011;2002;48.812;9.180;2023-05-27T10:10:11;5.50;;;3.57;;
3975;SDS011;2002;48.812;9.180;2023-05-27T10:12:42;3.50;;;3.20;;
3975;SDS011;2002;48.812;9.180;2023-05-27T10:15:09;5.57;;;3.70;;
3975;SDS011;2002;48.812;9.180;2023-05-27T10:17:49;4.50;;;3.00;;
3975;SDS011;2002;48.812;9.180;2023-05-27T10:22:51;4.60;;;3.57;;
3975;SDS011;2002;48.812;9.180;2023-05-27T10:25:17;6.10;;;3.67;;
3975;SDS011;2002;48.812;9.180;2023-05-27T10:27:46;3.90;;;3.13;;
3975;SDS011;2002;48.812;9.180;2023-05-27T10:30:12;4.10;;;3.70;;
3975;SDS011;2002;48.812;9.180;2023-05-27T10:32:49;6.50;;;4.93;;
3975;SDS011;2002;48.812;9.180;2023-05-27T10:35:17;5.57;;;3.87;;
3975;SDS011;2002;48.812;9.180;2023-05-27T10:37:43;4.47;;;3.57;;
3975;SDS011;2002;48.812;9.180;2023-05-27T10:40:11;4.07;;;3.67;;
3975;SDS011;2002;48.812;9.180;2023-05-27T10:42:36;6.60;;;3.80;;
3975;SDS011;2002;48.812;9.180;2023-05-27T10:45:09;4.30;;;3.90;;
3975;SDS011;2002;48.812;9.180;2023-05-27T10:47:36;4.87;;;3.77;;
3975;SDS011;2002;48.812;9.180;2023-05-27T10:50:12;4.40;;;3.90;;
3975;SDS011;2002;48.812;9.180;2023-05-27T10:52:38;5.30;;;4.00;;
3975;SDS011;2002;48.812;9.180;2023-05-27T10:55:05;4.03;;;3.60;;
3975;SDS011;2002;48.812;9.180;2023-05-27T10:57:31;3.83;;;3.43;;
3975;SDS011;2002;48.812;9.180;2023-05-27T11:00:00;4.47;;;4.10;;
3975;SDS011;2002;48.812;9.180;2023-05-27T11:02:34;4.90;;;4.00;;
3975;SDS011;2002;48.812;9.180;2023-05-27T11:05:13;4.97;;;4.30;;
3975;SDS011;2002;48.812;9.180;2023-05-27T11:07:40;4.63;;;3.63;;
3975;SDS011;2002;48.812;9.180;2023-05-27T11:10:06;5.33;;;4.60;;
3975;SDS011;2002;48.812;9.180;2023-05-27T11:12:33;4.60;;;3.50;;
3975;SDS011;2002;48.812;9.180;2023-05-27T11:14:58;6.27;;;4.53;;
3975;SDS011;2002;48.812;9.180;2023-05-27T11:17:24;5.20;;;4.17;;
3975;SDS011;2002;48.812;9.180;2023-05-27T11:19:54;6.10;;;4.00;;
3975;SDS011;2002;48.812;9.180;2023-05-27T11:22:20;4.57;;;4.13;;
3975;SDS011;2002;48.812;9.180;2023-05-27T11:27:40;5.10;;;3.73;;
3975;SDS011;2002;48.812;9.180;2023-05-27T11:30:10;7.13;;;4.13;;
3975;SDS011;2002;48.812;9.180;2023-05-27T11:32:36;5.20;;;3.97;;
3975;SDS011;2002;48.812;9.180;2023-05-27T11:35:03;5.40;;;4.00;;
3975;SDS011;2002;48.812;9.180;2023-05-27T11:37:30;4.47;;;4.07;;
3975;SDS011;2002;48.812;9.180;2023-05-27T11:39:58;5.93;;;3.90;;
3975;SDS011;2002;48.812;9.180;2023-05-27T11:42:24;4.40;;;4.00;;
3975;SDS011;2002;48.812;9.180;2023-05-27T11:44:50;3.87;;;3.57;;
3975;SDS011;2002;48.812;9.180;2023-05-27T11:47:17;7.03;;;4.33;;
3975;SDS011;2002;48.812;9.180;2023-05-27T11:49:43;4.87;;;4.10;;
3975;SDS011;2002;48.812;9.180;2023-05-27T11:52:10;5.00;;;4.50;;
3975;SDS011;2002;48.812;9.180;2023-05-27T11:54:37;4.60;;;4.00;;
3975;SDS011;2002;48.812;9.180;2023-05-27T11:57:03;5.37;;;4.03;;
3975;SDS011;2002;48.812;9.180;2023-05-27T11:59:31;4.77;;;3.93;;
3975;SDS011;2002;48.812;9.180;2023-05-27T12:01:58;5.23;;;3.67;;
3975;SDS011;2002;48.812;9.180;2023-05-27T12:04:23;4.67;;;4.07;;
3975;SDS011;2002;48.812;9.180;2023-05-27T12:06:49;5.30;;;4.20;;
3975;SDS011;2002;48.812;9.180;2023-05-27T12:09:15;4.77;;;4.27;;
3975;SDS011;2002;48.812;9.180;2023-05-27T12:11:41;5.80;;;4.27;;
3975;SDS011;2002;48.812;9.180;2023-05-27T12:14:06;7.23;;;4.00;;
3975;SDS011;2002;48.812;9.180;2023-05-27T12:16:32;4.20;;;3.80;;
3975;SDS011;2002;48.812;9.180;2023-05-27T12:18:58;5.90;;;4.53;;
3975;SDS011;2002;48.812;9.180;2023-05-27T12:21:25;4.23;;;3.80;;
3975;SDS011;2002;48.812;9.180;2023-05-27T12:23:51;8.27;;;4.20;;
3975;SDS011;2002;48.812;9.180;2023-05-27T12:26:16;4.57;;;4.10;;
3975;SDS011;2002;48.812;9.180;2023-05-27T12:28:43;5.47;;;4.27;;
3975;SDS011;2002;48.812;9.180;2023-05-27T12:31:09;5.40;;;3.73;;
3975;SDS011;2002;48.812;9.180;2023-05-27T12:33:35;4.90;;;3.90;;
3975;SDS011;2002;48.812;9.180;2023-05-27T12:36:01;4.60;;;4.00;;
3975;SDS011;2002;48.812;9.180;2023-05-27T12:38:27;6.47;;;4.40;;
3975;SDS011;2002;48.812;9.180;2023-05-27T12:40:52;6.27;;;4.03;;
3975;SDS011;2002;48.812;9.180;2023-05-27T12:43:20;4.87;;;3.97;;
3975;SDS011;2002;48.812;9.180;2023-05-27T12:45:46;6.20;;;3.97;;
3975;SDS011;2002;48.812;9.180;2023-05-27T12:48:12;4.57;;;4.10;;
3975;SDS011;2002;48.812;9.180;2023-05-27T12:50:38;5.70;;;4.40;;
3975;SDS011;2002;48.812;9.180;2023-05-27T12:53:04;4.70;;;4.20;;
3975;SDS011;2002;48.812;9.180;2023-05-27T12:55:29;4.93;;;4.33;;
3975;SDS011;2002;48.812;9.180;2023-05-27T12:57:55;4.90;;;4.40;;
3975;SDS011;2002;48.812;9.180;2023-05-27T13:00:21;5.57;;;4.10;;
3975;SDS011;2002;48.812;9.180;2023-05-27T13:02:47;7.23;;;3.93;;
3975;SDS011;2002;48.812;9.180;2023-05-27T13:05:13;5.03;;;4.27;;
3975;SDS011;2002;48.812;9.180;2023-05-27T13:07:39;4.20;;;3.77;;
3975;SDS011;2002;48.812;9.180;2023-05-27T13:10:06;5.67;;;3.90;;
3975;SDS011;2002;48.812;9.180;2023-05-27T13:12:36;14.40;;;4.97;;
3975;SDS011;2002;48.812;9.180;2023-05-27T13:15:01;5.93;;;4.47;;
3975;SDS011;2002;48.812;9.180;2023-05-27T13:17:32;7.03;;;4.40;;
3975;SDS011;2002;48.812;9.180;2023-05-27T13:19:58;4.70;;;3.80;;
3975;SDS011;2002;48.812;9.180;2023-05-27T13:22:24;6.40;;;4.90;;
3975;SDS011;2002;48.812;9.180;2023-05-27T13:24:50;5.10;;;4.43;;
3975;SDS011;2002;48.812;9.180;2023-05-27T13:27:16;6.70;;;4.60;;
3975;SDS011;2002;48.812;9.180;2023-05-27T13:29:42;5.37;;;4.40;;
3975;SDS011;2002;48.812;9.180;2023-05-27T13:32:07;5.20;;;4.07;;
3975;SDS011;2002;48.812;9.180;2023-05-27T13:34:33;4.53;;;3.40;;
3975;SDS011;2002;48.812;9.180;2023-05-27T13:36:59;4.40;;;4.00;;
3975;SDS011;2002;48.812;9.180;2023-05-27T13:39:25;4.43;;;3.93;;
3975;SDS011;2002;48.812;9.180;2023-05-27T13:41:50;6.80;;;4.10;;
3975;SDS011;2002;48.812;9.180;2023-05-27T13:44:16;4.63;;;4.13;;
3975;SDS011;2002;48.812;9.180;2023-05-27T13:46:41;4.70;;;4.20;;
3975;SDS011;2002;48.812;9.180;2023-05-27T13:49:07;7.80;;;4.20;;
3975;SDS011;2002;48.812;9.180;2023-05-27T13:51:32;5.23;;;3.60;;
3975;SDS011;2002;48.812;9.180;2023-05-27T13:53:58;8.87;;;4.20;;
3975;SDS011;2002;48.812;9.180;2023-05-27T13:56:24;5.77;;;3.87;;
3975;SDS011;2002;48.812;9.180;2023-05-27T13:58:49;4.27;;;3.93;;
3975;SDS011;2002;48.812;9.180;2023-05-27T14:01:17;5.50;;;3.77;;
3975;SDS011;2002;48.812;9.180;2023-05-27T14:03:43;4.80;;;3.97;;
3975;SDS011;2002;48.812;9.180;2023-05-27T14:06:08;4.63;;;3.87;;
3975;SDS011;2002;48.812;9.180;2023-05-27T14:08:34;4.33;;;3.83;;
3975;SDS011;2002;48.812;9.180;2023-05-27T14:11:00;5.33;;;4.03;;
3975;SDS011;2002;48.812;9.180;2023-05-27T14:13:26;5.40;;;3.50;;
3975;SDS011;2002;48.812;9.180;2023-05-27T14:15:52;5.50;;;3.77;;
3975;SDS011;2002;48.812;9.180;2023-05-27T14:18:18;5.23;;;4.23;;
3975;SDS011;2002;48.812;9.180;2023-05-27T14:20:44;3.97;;;3.63;;
3975;SDS011;2002;48.812;9.180;2023-05-27T14:23:09;5.73;;;4.00;;
3975;SDS011;2002;48.812;9.180;2023-05-27T14:25:37;4.90;;;4.10;;
3975;SDS011;2002;48.812;9.180;2023-05-27T14:28:03;6.80;;;3.80;;
3975;SDS011;2002;48.812;9.180;2023-05-27T14:30:31;8.53;;;4.30;;
3975;SDS011;2002;48.812;9.180;2023-05-27T14:33:04;6.63;;;4.47;;
3975;SDS011;2002;48.812;9.180;2023-05-27T14:35:34;5.80;;;3.87;;
3975;SDS011;2002;48.812;9.180;2023-05-27T14:38:00;9.17;;;3.90;;
3975;SDS011;2002;48.812;9.180;2023-05-27T14:40:26;3.60;;;3.17;;
3975;SDS011;2002;48.812;9.180;2023-05-27T14:42:52;3.90;;;3.07;;
3975;SDS011;2002;48.812;9.180;2023-05-27T14:45:17;3.67;;;3.30;;
3975;SDS011;2002;48.812;9.180;2023-05-27T14:47:45;5.43;;;4.00;;
3975;SDS011;2002;48.812;9.180;2023-05-27T14:50:11;5.13;;;3.33;;
3975;SDS011;2002;48.812;9.180;2023-05-27T14:52:37;5.47;;;3.60;;
3975;SDS011;2002;48.812;9.180;2023-05-27T14:55:02;5.70;;;3.60;;
3975;SDS011;2002;48.812;9.180;2023-05-27T14:57:30;5.43;;;4.03;;
3975;SDS011;2002;48.812;9.180;2023-05-27T14:59:59;3.87;;;3.47;;
3975;SDS011;2002;48.812;9.180;2023-05-27T15:02:29;4.43;;;4.00;;
3975;SDS011;2002;48.812;9.180;2023-05-27T15:04:58;4.63;;;3.30;;
3975;SDS011;2002;48.812;9.180;2023-05-27T15:07:24;5.10;;;3.97;;
3975;SDS011;2002;48.812;9.180;2023-05-27T15:09:49;4.37;;;3.13;;
3975;SDS011;2002;48.812;9.180;2023-05-27T15:12:15;7.30;;;4.27;;
3975;SDS011;2002;48.812;9.180;2023-05-27T15:14:41;4.03;;;3.73;;
3975;SDS011;2002;48.812;9.180;2023-05-27T15:17:06;5.07;;;3.20;;
3975;SDS011;2002;48.812;9.180;2023-05-27T15:19:36;5.20;;;3.87;;
3975;SDS011;2002;48.812;9.180;2023-05-27T15:22:02;4.50;;;3.40;;